x

Canaveral 20 Nm East Of Cape Canaveral, Fl (41009) Wave Buoy

4:50pm - Wed 17th Sep 2014 All times are EDT. -4 hours from GMT.

  • Sig Wave height 3.0ft
  • Swell Direction
  • Peak Period 15s
  • Average Period 6s
  • Wind
    9mph, 11mph gusts
  • Sea Temp 85°f
  • Air Temp 81°f
  • Sea Pressure 1011.4mb
  • Canaveral 20 Nm East Of Cape Canaveral, Fl
  • Canaveral 20 Nm East Of Cape Canaveral, Fl

More Historic Weather Station data

Upgrade to MSW Pro to gain access to the past 30 days of data for over 8000 Wavebouys and Weather Stations around the globe.

Join Pro

Comparision Forecast

View Surf forecast
   
Wed 09/17 4:50pm 3ft 15s 6s 9 11 mph 1011.4mb 85f 81f
4:20pm  -   -   -  9 11 mph 1011.3mb 85f 80f
3:50pm 2.5ft 15s 6s 13 16 mph 1011.8mb 85f 80f
3:20pm  -   -   -  13 16 mph 1012mb 85f 80f
2:50pm 2.5ft 14s 5s 16 18 mph 1011.9mb 85f 80f
2:20pm  -   -   -  7 11 mph 1012.3mb 85f 79f
1:50pm 3ft 15s 5s 9 13 mph 1012.8mb 85f 81f
1:20pm  -   -   -  11 13 mph 1013.2mb 85f 81f
12:50pm 2.5ft 12s 4s 11 16 mph 1013.7mb 85f 81f
12:20pm  -   -   -  13 16 mph 1014.1mb 85f 80f
11:50am 2.5ft 15s 4s 13 16 mph 1014.4mb 85f 80f
11:20am  -   -   -  16 18 mph 1014.4mb 85f 80f
10:50am 3ft 4s 4s 18 22 mph 1014.1mb 85f 79f
10:20am  -   -   -  20 25 mph 1014mb 85f 79f
9:50am 2.5ft 4s 4s 18 20 mph 1014mb 85f 79f
9:20am  -   -   -  18 22 mph 1013.8mb 85f 78f
8:50am 2.5ft 14s 4s 18 22 mph 1013.9mb 85f 79f
8:20am  -   -   -  18 22 mph 1013.7mb 85f 79f
7:50am 2.5ft 13s 4s 18 20 mph 1013.6mb 85f 79f
7:20am  -   -   -  18 20 mph 1013.6mb 85f 79f
6:50am 2.5ft 4s 4s 16 18 mph 1013.4mb 85f 79f
6:20am  -   -   -  16 18 mph 1013.2mb 85f 79f
5:50am 2.5ft 13s 4s 16 18 mph 1013mb 85f 79f
5:20am  -   -   -  16 20 mph 1013.3mb 84f 79f
4:50am 2.5ft 13s 4s 16 20 mph 1013.3mb 84f 79f
4:20am  -   -   -  16 18 mph 1013.5mb 84f 80f
3:50am 2.5ft 13s 4s 13 18 mph 1013.5mb 84f 80f
3:20am  -   -   -  13 18 mph 1013.7mb 84f 80f
2:50am 2.5ft 8s 4s 13 16 mph 1014.1mb 84f 80f
2:20am  -   -   -  16 20 mph 1014.5mb 85f 81f
1:50am 2.5ft 8s 4s 13 16 mph 1014.7mb 85f 81f
1:20am  -   -   -  13 16 mph 1014.7mb 85f 81f
12:50am 2.5ft 8s 5s 13 18 mph 1014.9mb 85f 80f
12:20am  -   -   -  13 16 mph 1015.1mb 85f 80f
Tue 09/16 11:50pm 2ft 8s 5s 13 16 mph 1015.3mb 85f 80f
11:20pm  -   -   -  13 16 mph 1015.8mb 85f 81f
10:50pm 2ft 8s 5s 13 16 mph 1016.2mb 85f 81f
10:20pm  -   -   -  16 18 mph 1016mb 85f 81f
9:50pm 2ft 9s 5s 11 13 mph 1016mb 85f 81f
9:20pm  -   -   -  13
mph
1015.9mb 86f 81f
8:50pm 2ft 8s 6s 11 13 mph 1015.8mb 86f 82f
8:20pm  -   -   -  2 4 mph 1015.7mb 86f 82f
7:50pm 1.6ft 9s 5s 2 4 mph 1015.4mb 86f 82f
7:20pm  -   -   -  7 9 mph 1015.3mb 86f 82f
6:50pm 1.6ft 8s 7s 7 9 mph 1015.4mb 86f 82f
6:20pm  -   -   -  11 16 mph 1015.6mb 86f 82f
5:50pm 1.6ft 8s 7s 2 4 mph 1015.6mb 87f 83f
5:20pm  -   -   -  2 4 mph 1015.4mb 87f 83f
4:50pm 1.3ft 9s 6s 4
mph
1015.4mb 86f 83f
4:20pm  -   -   -  2 4 mph 1015.6mb 86f 83f
3:50pm 1.6ft 8s 6s 2 4 mph 1016mb 85f 83f
3:20pm  -   -   -  2 4 mph 1016.4mb 85f 83f
2:50pm 2ft 8s 7s 2 4 mph 1016.8mb 85f 83f
2:20pm  -   -   -  7 9 mph 1017mb 84f 83f
1:50pm 2ft 9s 7s 7 9 mph 1017.4mb 84f 83f
1:20pm  -   -   -  9 11 mph 1017.7mb 84f 83f
12:50pm 2ft 9s 7s 7 9 mph 1018mb 84f 83f
12:20pm  -   -   -  9 11 mph 1018.3mb 84f 82f
11:50am 2ft 8s 6s 9
mph
1018.9mb 84f 82f
11:20am  -   -   -  9
mph
1019.2mb 84f 82f
10:50am 1.6ft 9s 6s 9
mph
1019.2mb 84f 82f
10:20am  -   -   -  9 11 mph 1018.9mb 84f 82f
9:50am 2ft 8s 6s 7 9 mph 1018.8mb 84f 82f
9:20am  -   -   -  7 9 mph 1018.7mb 84f 82f
8:50am 2ft 8s 5s 7 9 mph 1018.4mb 84f 82f
8:20am  -   -   -  9 11 mph 1018.5mb 84f 81f
7:50am 1.6ft 8s 6s 11 13 mph 1018.6mb 84f 81f
7:20am  -   -   -  11 13 mph 1018.7mb 84f 81f
6:50am 2ft 8s 6s 9 11 mph 1018.6mb 84f 81f
6:20am  -   -   -  9 11 mph 1018.6mb 84f 81f
5:50am 1.6ft 8s 6s 11
mph
1018.5mb 84f 81f
4:50am 1.6ft 8s 6s 7 9 mph 1018.5mb 84f 80f
4:20am  -   -   -  11 13 mph 1018.6mb 84f 78f
3:50am 1.3ft 8s 5s 7 9 mph 1018.8mb 84f 79f
3:20am  -   -   -  9 16 mph 1019mb 84f 80f
2:50am 1.3ft 8s 6s 9 11 mph 1019.1mb 84f 83f
2:20am  -   -   -  9 11 mph 1019.4mb 84f 83f
1:50am 1.3ft 8s 6s 9
mph
1019.7mb 85f 83f
1:20am  -   -   -  7 9 mph 1020mb 85f 83f
12:50am 1.3ft 8s 6s 7
mph
1020.2mb 85f 83f
Mon 09/15 11:50pm 1.3ft 8s 6s 7
mph
1020.6mb 85f 84f
11:20pm  -   -   -  7
mph
1020.8mb 85f 84f
10:50pm 1.3ft 8s 6s 4 7 mph 1020.9mb 85f 84f
10:20pm  -   -   -  4 7 mph 1020.9mb 85f 84f
9:50pm 1.3ft 9s 6s 2 4 mph 1020.7mb 85f 83f
9:20pm  -   -   -  4
mph
1020.6mb 85f 84f
8:50pm 1.3ft 8s 6s 7
mph
1020.1mb 85f 84f
8:20pm  -   -   -  7
mph
1019.8mb 85f 84f
7:50pm 1.3ft 9s 6s 7 9 mph 1019.5mb 85f 84f
7:20pm  -   -   -  7 9 mph 1019.6mb 85f 84f
6:50pm 1.3ft 8s 6s 7 9 mph 1019.4mb 85f 84f
6:20pm  -   -   -  7
mph
1019.4mb 85f 84f
5:50pm 1.3ft 8s 6s 7
mph
1019.5mb 86f 84f
5:20pm  -   -   -  7
mph
1019.6mb 86f 84f
4:50pm 1.3ft 9s 6s 7
mph
1019.6mb 86f 84f
4:20pm  -   -   -  4 7 mph 1020mb 86f 83f
3:50pm 1.3ft 8s 6s 7
mph
1019.9mb 87f 83f
3:20pm  -   -   -  4 7 mph 1020.2mb 87f 83f
2:50pm 1.3ft 9s 6s 4
mph
1020.5mb 87f 83f
2:20pm  -   -   -  2 4 mph 1021mb 87f 82f
1:50pm 1.3ft 7s 5s 2 4 mph 1021.3mb 86f 82f
1:20pm  -   -   -  4
mph
1021.5mb 86f 82f
12:50pm 1.3ft 8s 5s 4
mph
1021.8mb 86f 82f
12:20pm  -   -   -  2 4 mph 1022.1mb 85f 82f
11:50am 1.3ft 8s 5s 2 4 mph 1022mb 85f 81f
11:20am  -   -   -  2 4 mph 1022.1mb 85f 81f
10:50am 1.6ft 8s 5s 4 7 mph 1022.1mb 84f 81f
10:20am  -   -   -  4 7 mph 1022.2mb 84f 81f
9:50am 1.3ft 8s 5s 4 7 mph 1022.1mb 84f 81f
9:20am  -   -   -  4
mph
1021.9mb 84f 82f
8:50am 1.3ft 9s 5s 4 7 mph 1021.7mb 84f 81f
8:20am  -   -   -  7
mph
1021.6mb 84f 81f
7:50am 1.6ft 9s 5s 4 7 mph 1021.5mb 84f 81f
7:20am  -   -   -  7 9 mph 1021.4mb 84f 81f
6:50am 1.6ft 8s 5s 4 7 mph 1021.1mb 84f 81f
6:20am  -   -   -  4 7 mph 1021mb 84f 81f
5:20am  -   -   -  4 7 mph 1020.6mb 84f 81f
4:50am 1.3ft 8s 5s 4
mph
1020.6mb 84f 81f
4:20am  -   -   -  4 7 mph 1020.5mb 84f 81f
3:50am 1.3ft 5s 5s 7
mph
1020.4mb 84f 81f
3:20am  -   -   -  2 4 mph 1020.5mb 84f 82f
2:50am 1.3ft 9s 4s 4
mph
1020.5mb 84f 81f
2:20am  -   -   -  7
mph
1020.7mb 84f 81f
1:50am 1.3ft 9s 4s 4 7 mph 1020.9mb 84f 81f
1:20am  -   -   -  4
mph
1021mb 84f 81f
12:20am  -   -   -  4 7 mph 1021.3mb 85f 81f
Sun 09/14 11:50pm 1.6ft 3s 4s 7 9 mph 1021.4mb 85f 81f
11:20pm  -   -   -  4
mph
1021.4mb 85f 81f
10:50pm 2ft 5s 4s 4 7 mph 1021.5mb 85f 81f
10:20pm  -   -   -  7
mph
1021.7mb 85f 80f
9:50pm 2ft 3s 4s 7 9 mph 1021.6mb 84f 80f
9:20pm  -   -   -  13 16 mph 1021.3mb 84f 80f
8:50pm 2ft 5s 4s 18 22 mph 1021mb 84f 80f
8:20pm  -   -   -  13 18 mph 1020.7mb 84f 83f
7:50pm 2ft 5s 4s 13 16 mph 1020.3mb 84f 83f
7:20pm  -   -   -  13 16 mph 1020.1mb 84f 83f
6:50pm 2.5ft 5s 4s 11 16 mph 1019.8mb 84f 83f
6:20pm  -   -   -  11 13 mph 1019.9mb 84f 83f
5:50pm 2.5ft 5s 4s 11 13 mph 1019.9mb 85f 83f
5:20pm  -   -   -  13
mph
1020mb 84f 83f
4:50pm 2.5ft 4s 4s 13 16 mph 1020mb 84f 83f
4:20pm  -   -   -  9 11 mph 1020.3mb 85f 83f
3:50pm 2.5ft 5s 4s 11 13 mph 1020.2mb 85f 83f
3:20pm  -   -   -  9 11 mph 1020.4mb 85f 82f
2:50pm 3ft 5s 4s 7 9 mph 1020.5mb 85f 82f
2:20pm  -   -   -  4 7 mph 1020.7mb 85f 82f
1:50pm 3ft 5s 4s 4 9 mph 1020.8mb 85f 82f
1:20pm  -   -   -  4 7 mph 1020.9mb 85f 82f
12:50pm 2.5ft 5s 4s 4 7 mph 1021.3mb 85f 82f
12:20pm  -   -   -   -  2 mph 1021.5mb 84f 82f
11:50am 2.5ft 4s 4s 4
mph
1021.5mb 84f 81f
11:20am  -   -   -  7
mph
1021.4mb 84f 81f
10:50am 2ft 5s 4s 7 9 mph 1021.4mb 83f 81f
10:20am  -   -   -  4 7 mph 1021.2mb 83f 81f
9:50am 2ft 4s 4s 7 9 mph 1020.6mb 83f 82f
9:20am  -   -   -  7
mph
1020.3mb 83f 81f
8:50am 2ft 4s 4s 2
mph
1019.6mb 82f 82f
8:20am  -   -   -   -  2 mph 1019.5mb 82f 83f
7:50am 2ft 4s 4s  -  2 mph 1019.2mb 82f 81f
7:20am  -   -   -  7 9 mph 1019.2mb 82f 80f
6:50am 2.5ft 4s 4s 11 13 mph 1019.1mb 82f 81f
6:20am  -   -   -  13 18 mph 1019.1mb 82f 81f
5:50am 2.5ft 4s 4s 13 16 mph 1018.8mb 82f 81f
5:20am  -   -   -  13 16 mph 1018.7mb 82f 81f
4:50am 2ft 4s 4s 13 16 mph 1018.7mb 82f 81f
4:20am  -   -   -  13 16 mph 1018.7mb 82f 81f
3:50am 2ft 4s 4s 11 13 mph 1018.9mb 82f 82f
3:20am  -   -   -  9 11 mph 1018.8mb 82f 82f
2:50am 2ft 4s 4s 9
mph
1019mb 82f 82f
2:20am  -   -   -  7 9 mph 1019.4mb 82f 82f
1:50am 2.5ft 4s 4s 9 11 mph 1019.6mb 82f 82f
1:20am  -   -   -  7 9 mph 1019.7mb 82f 82f
12:50am 2.5ft 5s 4s 9
mph
1019.8mb 82f 82f
12:20am  -   -   -  9 11 mph 1019.8mb 83f 82f
Sat 09/13 11:50pm 2.5ft 4s 4s 9 11 mph 1019.6mb 83f 82f
11:20pm  -   -   -  9 11 mph 1019.5mb 83f 82f
10:50pm 2.5ft 5s 4s 9 11 mph 1019.6mb 83f 82f
10:20pm  -   -   -  9 11 mph 1019.6mb 83f 83f